createdAt,value
2023-08-22T00:00:32.148Z,29.01
2023-08-22T00:02:58.934Z,29.05
2023-08-22T00:05:25.808Z,29.00
2023-08-22T00:07:52.468Z,28.94
2023-08-22T00:10:20.643Z,28.91
2023-08-22T00:12:47.289Z,28.77
2023-08-22T00:15:14.069Z,28.72
2023-08-22T00:17:41.452Z,28.69
2023-08-22T00:20:09.335Z,28.58
2023-08-22T00:22:36.031Z,28.56
2023-08-22T00:25:02.793Z,28.47
2023-08-22T00:27:30.835Z,28.50
2023-08-22T00:29:58.069Z,28.51
2023-08-22T00:32:24.826Z,28.45
2023-08-22T00:34:51.616Z,28.45
2023-08-22T00:37:18.636Z,28.40
2023-08-22T00:39:45.321Z,28.44
2023-08-22T00:42:12.033Z,28.32
2023-08-22T00:44:40.264Z,28.31
2023-08-22T00:47:07.321Z,28.34
2023-08-22T00:49:34.674Z,28.36
2023-08-22T00:52:02.075Z,28.28
2023-08-22T00:54:29.176Z,28.29
2023-08-22T00:56:55.872Z,28.14
2023-08-22T00:59:22.569Z,28.22
2023-08-22T01:01:50.577Z,28.23
2023-08-22T01:04:17.317Z,28.25
2023-08-22T01:06:47.671Z,28.21
2023-08-22T01:09:18.293Z,28.24
2023-08-22T01:11:45.940Z,28.08
2023-08-22T01:14:13.938Z,28.08
2023-08-22T01:16:40.689Z,27.97
2023-08-22T01:19:09.838Z,27.99
2023-08-22T01:21:36.542Z,27.97
2023-08-22T01:24:06.408Z,27.89
2023-08-22T01:26:33.092Z,27.87
2023-08-22T01:29:09.647Z,27.84
2023-08-22T01:31:39.900Z,27.70
2023-08-22T01:34:09.660Z,27.63
2023-08-22T01:36:36.514Z,27.57
2023-08-22T01:39:04.608Z,27.53
2023-08-22T01:41:31.355Z,27.60
2023-08-22T01:43:59.065Z,27.54
2023-08-22T01:46:27.157Z,27.54
2023-08-22T01:48:53.891Z,27.54
2023-08-22T01:51:20.560Z,27.46
2023-08-22T01:53:47.257Z,27.34
2023-08-22T01:56:15.261Z,27.34
2023-08-22T01:58:41.981Z,27.30
2023-08-22T02:01:09.254Z,27.28
2023-08-22T02:03:36.023Z,27.24
2023-08-22T02:06:03.261Z,27.18
2023-08-22T02:08:30.008Z,27.01
2023-08-22T02:10:56.704Z,26.91
2023-08-22T02:13:24.721Z,26.96
2023-08-22T02:15:51.416Z,26.91
2023-08-22T02:18:18.158Z,26.86
2023-08-22T02:20:44.847Z,26.88
2023-08-22T02:23:11.597Z,26.82
2023-08-22T02:25:38.283Z,26.59
2023-08-22T02:28:05.557Z,26.55
2023-08-22T02:30:33.575Z,26.61
2023-08-22T02:33:00.344Z,26.61
2023-08-22T02:35:27.052Z,26.67
2023-08-22T02:37:53.738Z,26.58
2023-08-22T02:40:20.464Z,26.56
2023-08-22T02:42:47.566Z,26.61
2023-08-22T02:45:14.262Z,26.62
2023-08-22T02:47:42.598Z,26.61
2023-08-22T02:50:10.898Z,26.64
2023-08-22T02:52:37.654Z,26.54
2023-08-22T02:55:05.046Z,26.50
2023-08-22T02:57:31.698Z,26.44
2023-08-22T02:59:58.477Z,26.34
2023-08-22T03:02:25.249Z,26.46
2023-08-22T03:04:55.024Z,26.46
2023-08-22T03:07:21.796Z,26.33
2023-08-22T03:09:48.460Z,26.25
2023-08-22T03:12:15.254Z,26.14
2023-08-22T03:14:42.320Z,26.21
2023-08-22T03:17:09.520Z,26.12
2023-08-22T03:19:37.857Z,25.89
2023-08-22T03:22:05.987Z,25.88
2023-08-22T03:24:33.300Z,25.92
2023-08-22T03:27:00.061Z,25.86
2023-08-22T03:29:27.165Z,25.87
2023-08-22T03:31:53.915Z,25.94
2023-08-22T03:34:21.499Z,25.80
2023-08-22T03:36:48.411Z,25.83
2023-08-22T03:39:16.993Z,25.81
2023-08-22T03:41:43.683Z,25.85
2023-08-22T03:44:11.058Z,25.78
2023-08-22T03:46:39.491Z,25.75
2023-08-22T03:49:20.009Z,25.81
2023-08-22T03:51:46.761Z,25.69
2023-08-22T03:54:13.462Z,25.71
2023-08-22T03:56:41.497Z,25.67
2023-08-22T03:59:08.185Z,25.64
2023-08-22T04:01:34.888Z,25.58
2023-08-22T04:04:01.587Z,25.58
2023-08-22T04:06:29.372Z,25.45
2023-08-22T04:08:56.057Z,25.51
2023-08-22T04:11:22.797Z,25.62
2023-08-22T04:13:50.835Z,25.56
2023-08-22T04:16:18.321Z,25.56
2023-08-22T04:18:45.304Z,25.48
2023-08-22T04:21:12.043Z,25.49
2023-08-22T04:23:38.776Z,25.51
2023-08-22T04:26:05.493Z,25.45
2023-08-22T04:28:32.903Z,25.47
2023-08-22T04:31:01.645Z,25.32
2023-08-22T04:33:29.837Z,25.43
2023-08-22T04:35:57.531Z,25.50
2023-08-22T04:38:24.251Z,25.58
2023-08-22T04:40:52.824Z,25.56
2023-08-22T04:43:26.062Z,25.57
2023-08-22T04:45:52.806Z,25.53
2023-08-22T04:48:21.389Z,25.54
2023-08-22T04:50:49.249Z,25.46
2023-08-22T04:53:16.297Z,25.52
2023-08-22T04:55:42.998Z,25.47
2023-08-22T04:58:09.693Z,25.39
2023-08-22T05:00:36.377Z,25.45
2023-08-22T05:03:05.173Z,25.34
2023-08-22T05:05:33.596Z,25.35
2023-08-22T05:08:00.915Z,25.29
2023-08-22T05:10:27.646Z,25.14
2023-08-22T05:12:54.317Z,24.85
2023-08-22T05:15:22.346Z,24.95
2023-08-22T05:17:49.863Z,24.94
2023-08-22T05:20:16.782Z,24.93
2023-08-22T05:22:45.701Z,24.83
2023-08-22T05:25:12.477Z,24.94
2023-08-22T05:27:39.743Z,25.02
2023-08-22T05:30:07.873Z,25.08
2023-08-22T05:32:34.859Z,25.08
2023-08-22T05:35:01.808Z,25.08
2023-08-22T05:37:28.536Z,25.18
2023-08-22T05:39:56.721Z,25.14
2023-08-22T05:42:23.545Z,25.14
2023-08-22T05:44:50.821Z,25.12
2023-08-22T05:47:17.905Z,25.02
2023-08-22T05:49:44.780Z,25.10
2023-08-22T05:52:12.161Z,25.10
2023-08-22T05:54:38.912Z,24.70
2023-08-22T05:57:07.049Z,24.73
2023-08-22T05:59:34.039Z,24.72
2023-08-22T06:02:00.757Z,25.06
2023-08-22T06:04:28.708Z,25.18
2023-08-22T06:06:55.436Z,25.32
2023-08-22T06:09:22.137Z,25.45
2023-08-22T06:11:49.324Z,25.57
2023-08-22T06:14:17.389Z,25.65
2023-08-22T06:16:44.120Z,25.70
2023-08-22T06:19:10.839Z,25.81
2023-08-22T06:21:39.318Z,25.77
2023-08-22T06:24:06.804Z,25.82
2023-08-22T06:26:35.494Z,25.84
2023-08-22T06:29:02.178Z,25.90
2023-08-22T06:31:31.794Z,26.01
2023-08-22T06:33:58.775Z,26.03
2023-08-22T06:36:25.745Z,26.06
2023-08-22T06:38:52.780Z,26.06
2023-08-22T06:41:19.495Z,26.09
2023-08-22T06:43:47.281Z,26.11
2023-08-22T06:46:17.184Z,26.09
2023-08-22T06:48:45.525Z,26.12
2023-08-22T06:51:12.263Z,26.08
2023-08-22T06:53:39.001Z,26.12
2023-08-22T06:56:05.699Z,26.15
2023-08-22T06:58:32.431Z,26.19
2023-08-22T07:00:59.271Z,26.25
2023-08-22T07:03:26.142Z,26.32
2023-08-22T07:05:54.362Z,26.37
2023-08-22T07:08:21.217Z,26.47
2023-08-22T07:10:47.921Z,26.53
2023-08-22T07:13:15.207Z,26.57
2023-08-22T07:15:41.868Z,26.61
2023-08-22T07:18:08.645Z,26.69
2023-08-22T07:20:35.494Z,26.83
2023-08-22T07:23:03.765Z,26.88
2023-08-22T07:25:30.479Z,26.89
2023-08-22T07:27:57.144Z,26.99
2023-08-22T07:30:23.834Z,27.01
2023-08-22T07:32:50.540Z,26.99
2023-08-22T07:35:17.254Z,27.04
2023-08-22T07:37:43.940Z,26.95
2023-08-22T07:40:12.325Z,27.04
2023-08-22T07:42:39.177Z,27.11
2023-08-22T07:45:07.021Z,27.14
2023-08-22T07:47:33.755Z,27.14
2023-08-22T07:50:00.487Z,27.04
2023-08-22T07:52:27.135Z,27.14
2023-08-22T07:54:53.777Z,27.18
2023-08-22T07:57:21.900Z,27.22
2023-08-22T07:59:48.614Z,27.23
2023-08-22T08:02:15.314Z,27.25
2023-08-22T08:04:42.061Z,27.22
2023-08-22T08:07:08.757Z,27.20
2023-08-22T08:09:36.294Z,27.32
2023-08-22T08:12:03.609Z,27.36
2023-08-22T08:14:31.654Z,27.37
2023-08-22T08:16:58.517Z,27.44
2023-08-22T08:19:27.485Z,27.45
2023-08-22T08:21:54.572Z,27.46
2023-08-22T08:24:21.372Z,27.53
2023-08-22T08:26:48.071Z,27.49
2023-08-22T08:29:14.756Z,27.44
2023-08-22T08:31:42.819Z,27.52
2023-08-22T08:34:09.476Z,27.64
2023-08-22T08:36:36.135Z,27.64
2023-08-22T08:39:02.905Z,27.68
2023-08-22T08:41:29.697Z,27.75
2023-08-22T08:43:56.391Z,27.72
2023-08-22T08:46:23.118Z,27.84
2023-08-22T08:48:53.257Z,27.51
2023-08-22T08:51:20.003Z,27.71
2023-08-22T08:53:46.736Z,27.84
2023-08-22T08:56:15.308Z,27.47
2023-08-22T08:58:41.976Z,27.48
2023-08-22T09:01:08.682Z,27.57
2023-08-22T09:03:35.353Z,27.74
2023-08-22T09:06:03.517Z,27.87
2023-08-22T09:08:30.221Z,27.97
2023-08-22T09:10:56.959Z,27.84
2023-08-22T09:13:31.196Z,28.03
2023-08-22T09:16:05.883Z,28.07
2023-08-22T09:18:34.178Z,27.95
2023-08-22T09:21:03.892Z,27.97
2023-08-22T09:23:30.816Z,28.24
2023-08-22T09:25:57.545Z,28.17
2023-08-22T09:28:24.205Z,28.41
2023-08-22T09:30:51.051Z,28.50
2023-08-22T09:33:17.765Z,28.65
2023-08-22T09:35:44.525Z,28.64
2023-08-22T09:38:12.516Z,28.68
2023-08-22T09:40:50.349Z,28.57
2023-08-22T09:43:17.109Z,28.65
2023-08-22T09:45:44.066Z,28.34
2023-08-22T09:48:10.986Z,28.52
2023-08-22T09:50:37.739Z,28.70
2023-08-22T09:53:04.614Z,28.90
2023-08-22T09:55:32.652Z,29.07
2023-08-22T09:57:59.326Z,29.21
2023-08-22T10:00:25.997Z,29.18
2023-08-22T10:02:52.762Z,29.20
2023-08-22T10:05:19.564Z,28.97
2023-08-22T10:07:46.396Z,29.08
2023-08-22T10:10:13.257Z,29.16
2023-08-22T10:12:41.266Z,29.24
2023-08-22T10:15:08.605Z,28.92
2023-08-22T10:17:35.366Z,28.82
2023-08-22T10:20:02.460Z,29.12
2023-08-22T10:22:31.734Z,29.05
2023-08-22T10:25:02.213Z,28.95
2023-08-22T10:27:28.869Z,28.99
2023-08-22T10:30:21.591Z,29.15
2023-08-22T10:33:11.078Z,29.16
2023-08-22T10:35:46.133Z,29.41
2023-08-22T10:38:19.464Z,29.54
2023-08-22T10:40:52.957Z,29.20
2023-08-22T10:43:19.621Z,29.00
2023-08-22T10:45:51.532Z,29.22
2023-08-22T10:48:19.169Z,29.47
2023-08-22T10:50:46.549Z,29.52
2023-08-22T10:53:26.806Z,29.61
2023-08-22T10:55:54.085Z,29.60
2023-08-22T10:58:33.687Z,29.72
2023-08-22T11:01:02.284Z,29.66
2023-08-22T11:03:29.112Z,29.74
2023-08-22T11:05:55.819Z,30.03
2023-08-22T11:08:22.640Z,30.06
2023-08-22T11:10:49.430Z,29.81
2023-08-22T11:13:16.140Z,29.94
2023-08-22T11:15:42.973Z,30.08
2023-08-22T11:18:11.092Z,29.97
2023-08-22T11:20:37.739Z,29.92
2023-08-22T11:23:04.609Z,30.00
2023-08-22T11:25:31.371Z,30.20
2023-08-22T11:27:58.137Z,30.26
2023-08-22T11:30:24.878Z,30.28
2023-08-22T11:32:51.649Z,30.08
2023-08-22T11:35:19.647Z,30.38
2023-08-22T11:37:47.543Z,30.73
2023-08-22T11:40:14.733Z,30.89
2023-08-22T11:42:42.558Z,31.05
2023-08-22T11:45:10.778Z,31.08
2023-08-22T11:47:38.432Z,31.05
2023-08-22T11:50:05.765Z,30.90
2023-08-22T11:52:33.806Z,30.71
2023-08-22T11:55:04.562Z,30.79
2023-08-22T11:57:31.820Z,30.61
2023-08-22T12:00:00.260Z,30.72
2023-08-22T12:02:26.995Z,31.03
2023-08-22T12:04:53.726Z,30.76
2023-08-22T12:07:20.454Z,30.93
2023-08-22T12:09:59.396Z,31.27
2023-08-22T12:12:26.174Z,31.33
2023-08-22T12:14:52.824Z,31.47
2023-08-22T12:17:19.554Z,31.65
2023-08-22T12:19:46.220Z,31.80
2023-08-22T12:22:12.894Z,31.86
2023-08-22T12:24:39.548Z,31.72
2023-08-22T12:27:07.643Z,32.02
2023-08-22T12:29:34.332Z,32.23
2023-08-22T12:32:01.064Z,32.32
2023-08-22T12:34:27.776Z,32.10
2023-08-22T12:36:54.498Z,32.26
2023-08-22T12:39:21.186Z,32.44
2023-08-22T12:41:47.867Z,32.46
2023-08-22T12:44:15.880Z,32.62
2023-08-22T12:46:42.577Z,32.63
2023-08-22T12:49:09.235Z,32.80
2023-08-22T12:51:38.264Z,32.88
2023-08-22T12:54:05.701Z,32.90
2023-08-22T12:56:32.800Z,32.89
2023-08-22T12:58:59.580Z,33.11
2023-08-22T13:01:27.620Z,33.01
2023-08-22T13:03:54.465Z,33.11
2023-08-22T13:06:21.473Z,33.13
2023-08-22T13:08:58.475Z,33.26
2023-08-22T13:11:26.193Z,33.21
2023-08-22T13:13:53.086Z,33.44
2023-08-22T13:16:21.894Z,33.74
2023-08-22T13:18:50.195Z,33.86
2023-08-22T13:21:16.933Z,33.94
2023-08-22T13:23:43.574Z,33.90
2023-08-22T13:26:10.298Z,34.03
2023-08-22T13:28:36.996Z,34.00
2023-08-22T13:31:03.695Z,34.16
2023-08-22T13:33:30.833Z,34.32
2023-08-22T13:35:58.857Z,34.54
2023-08-22T13:38:25.529Z,34.38
2023-08-22T13:40:52.206Z,34.45
2023-08-22T13:43:18.881Z,34.31
2023-08-22T13:45:45.635Z,34.32
2023-08-22T13:48:12.369Z,34.63
2023-08-22T13:50:39.062Z,34.85
2023-08-22T13:53:07.086Z,34.93
2023-08-22T13:55:33.734Z,34.74
2023-08-22T13:58:00.543Z,34.90
2023-08-22T14:00:27.412Z,34.59
2023-08-22T14:02:54.125Z,34.83
2023-08-22T14:05:20.928Z,34.66
2023-08-22T14:07:47.922Z,34.54
2023-08-22T14:10:16.422Z,34.51
2023-08-22T14:12:43.085Z,34.76
2023-08-22T14:15:10.523Z,35.05
2023-08-22T14:17:37.180Z,35.15
2023-08-22T14:20:04.433Z,34.94
2023-08-22T14:22:31.106Z,35.03
2023-08-22T14:24:57.774Z,35.28
2023-08-22T14:27:27.618Z,35.56
2023-08-22T14:29:54.714Z,35.56
2023-08-22T14:32:21.381Z,35.59
2023-08-22T14:34:48.067Z,35.68
2023-08-22T14:37:22.780Z,35.62
2023-08-22T14:39:50.398Z,35.85
2023-08-22T14:42:17.064Z,35.90
2023-08-22T14:44:45.323Z,36.09
2023-08-22T14:47:12.009Z,36.07
2023-08-22T14:49:38.861Z,35.97
2023-08-22T14:52:05.597Z,35.97
2023-08-22T14:54:32.292Z,35.42
2023-08-22T14:56:58.992Z,35.30
2023-08-22T14:59:25.630Z,35.36
2023-08-22T15:01:53.684Z,35.38
2023-08-22T15:04:20.374Z,35.41
2023-08-22T15:06:47.086Z,35.03
2023-08-22T15:09:13.749Z,35.32
2023-08-22T15:11:40.476Z,35.29
2023-08-22T15:14:07.173Z,35.05
2023-08-22T15:16:33.878Z,35.50
2023-08-22T15:19:02.222Z,35.64
2023-08-22T15:21:28.876Z,35.69
2023-08-22T15:23:55.538Z,35.90
2023-08-22T15:26:22.273Z,36.04
2023-08-22T15:28:48.935Z,36.12
2023-08-22T15:31:15.717Z,36.09
2023-08-22T15:33:42.484Z,36.29
2023-08-22T15:36:10.590Z,36.31
2023-08-22T15:38:37.267Z,36.16
2023-08-22T15:41:05.036Z,36.23
2023-08-22T15:43:31.841Z,36.30
2023-08-22T15:45:58.551Z,36.22
2023-08-22T15:48:25.268Z,36.25
2023-08-22T15:50:52.081Z,36.31
2023-08-22T15:53:20.070Z,36.41
2023-08-22T15:55:46.784Z,36.37
2023-08-22T15:58:13.426Z,36.29
2023-08-22T16:00:40.244Z,36.29
2023-08-22T16:03:07.016Z,36.51
2023-08-22T16:05:33.882Z,36.69
2023-08-22T16:08:00.624Z,36.68
2023-08-22T16:10:28.630Z,36.51
2023-08-22T16:12:55.339Z,36.38
2023-08-22T16:15:22.000Z,36.47
2023-08-22T16:17:48.879Z,36.42
2023-08-22T16:20:15.999Z,36.48
2023-08-22T16:22:42.722Z,36.57
2023-08-22T16:25:09.712Z,36.73
2023-08-22T16:27:38.122Z,36.95
2023-08-22T16:30:06.954Z,36.87
2023-08-22T16:32:33.666Z,36.89
2023-08-22T16:35:00.427Z,37.00
2023-08-22T16:37:27.110Z,37.15
2023-08-22T16:39:53.802Z,37.04
2023-08-22T16:42:20.472Z,37.05
2023-08-22T16:44:48.528Z,36.76
2023-08-22T16:47:15.235Z,36.96
2023-08-22T16:49:41.898Z,36.85
2023-08-22T16:52:08.613Z,36.95
2023-08-22T16:54:35.629Z,36.95
2023-08-22T16:57:02.325Z,37.06
2023-08-22T16:59:29.066Z,37.10
2023-08-22T17:01:57.117Z,37.14
2023-08-22T17:04:23.901Z,37.10
2023-08-22T17:06:50.641Z,37.12
2023-08-22T17:09:17.470Z,37.11
2023-08-22T17:11:44.183Z,37.08
2023-08-22T17:14:10.842Z,37.07
2023-08-22T17:16:37.599Z,37.17
2023-08-22T17:19:05.637Z,37.09
2023-08-22T17:21:32.359Z,37.02
2023-08-22T17:23:59.107Z,36.97
2023-08-22T17:26:25.805Z,36.89
2023-08-22T17:28:52.526Z,36.79
2023-08-22T17:31:19.269Z,36.72
2023-08-22T17:33:45.932Z,36.66
2023-08-22T17:36:14.128Z,36.61
2023-08-22T17:38:41.969Z,36.51
2023-08-22T17:41:09.473Z,36.49
2023-08-22T17:43:36.922Z,36.40
2023-08-22T17:46:03.800Z,36.36
2023-08-22T17:48:30.845Z,36.28
2023-08-22T17:50:58.081Z,36.18
2023-08-22T17:53:26.067Z,36.12
2023-08-22T17:55:52.874Z,36.09
2023-08-22T17:58:19.718Z,36.00
2023-08-22T18:00:46.484Z,35.89
2023-08-22T18:03:13.299Z,35.79
2023-08-22T18:05:40.671Z,35.79
2023-08-22T18:08:07.380Z,35.72
2023-08-22T18:10:35.442Z,35.58
2023-08-22T18:13:02.152Z,35.54
2023-08-22T18:15:28.861Z,35.37
2023-08-22T18:17:55.731Z,35.10
2023-08-22T18:20:22.571Z,34.78
2023-08-22T18:22:49.230Z,34.54
2023-08-22T18:25:15.999Z,34.35
2023-08-22T18:27:44.335Z,34.20
2023-08-22T18:30:12.347Z,34.05
2023-08-22T18:32:39.056Z,33.95
2023-08-22T18:35:06.938Z,33.79
2023-08-22T18:37:33.681Z,33.79
2023-08-22T18:40:00.422Z,33.65
2023-08-22T18:42:29.423Z,33.55
2023-08-22T18:44:57.778Z,33.43
2023-08-22T18:47:24.578Z,33.32
2023-08-22T18:49:51.592Z,33.35
2023-08-22T18:52:18.273Z,33.21
2023-08-22T18:54:45.186Z,33.15
2023-08-22T18:57:11.852Z,33.10
2023-08-22T18:59:38.655Z,33.07
2023-08-22T19:02:06.788Z,32.99
2023-08-22T19:04:33.551Z,32.94
2023-08-22T19:07:00.211Z,32.92
2023-08-22T19:09:26.971Z,32.88
2023-08-22T19:11:53.720Z,32.83
2023-08-22T19:14:20.425Z,32.85
2023-08-22T19:16:47.297Z,32.79
2023-08-22T19:19:15.389Z,32.74
2023-08-22T19:21:42.071Z,32.68
2023-08-22T19:24:08.805Z,32.69
2023-08-22T19:26:35.626Z,32.69
2023-08-22T19:29:02.416Z,32.69
2023-08-22T19:31:29.189Z,32.24
2023-08-22T19:33:56.099Z,32.41
2023-08-22T19:36:24.255Z,32.46
2023-08-22T19:38:50.959Z,32.52
2023-08-22T19:41:17.655Z,32.53
2023-08-22T19:43:44.433Z,32.43
2023-08-22T19:46:11.193Z,32.45
2023-08-22T19:48:38.033Z,32.43
2023-08-22T19:51:04.718Z,32.47
2023-08-22T19:53:32.785Z,32.51
2023-08-22T19:55:59.526Z,32.48
2023-08-22T19:58:26.433Z,32.57
2023-08-22T20:00:54.255Z,32.47
2023-08-22T20:03:20.987Z,32.44
2023-08-22T20:05:47.778Z,32.40
2023-08-22T20:08:14.445Z,32.37
2023-08-22T20:10:42.560Z,32.35
2023-08-22T20:13:09.234Z,32.31
2023-08-22T20:15:35.957Z,32.38
2023-08-22T20:18:02.870Z,32.38
2023-08-22T20:20:29.619Z,32.26
2023-08-22T20:22:56.293Z,32.18
2023-08-22T20:25:22.987Z,32.14
2023-08-22T20:27:51.044Z,32.14
2023-08-22T20:30:17.762Z,32.02
2023-08-22T20:32:44.464Z,31.96
2023-08-22T20:35:11.204Z,31.95
2023-08-22T20:37:37.887Z,31.83
2023-08-22T20:40:05.742Z,31.79
2023-08-22T20:42:32.431Z,31.80
2023-08-22T20:45:00.466Z,31.74
2023-08-22T20:47:27.138Z,31.69
2023-08-22T20:49:53.920Z,31.65
2023-08-22T20:52:20.634Z,31.68
2023-08-22T20:54:47.310Z,31.61
2023-08-22T20:57:14.033Z,31.59
2023-08-22T20:59:40.726Z,31.53
2023-08-22T21:02:08.849Z,31.49
2023-08-22T21:04:35.547Z,31.50
2023-08-22T21:07:02.228Z,31.44
2023-08-22T21:09:29.057Z,31.42
2023-08-22T21:11:55.809Z,31.22
2023-08-22T21:14:22.516Z,31.21
2023-08-22T21:16:49.261Z,31.20
2023-08-22T21:19:17.574Z,31.13
2023-08-22T21:21:44.316Z,31.08
2023-08-22T21:24:13.569Z,31.09
2023-08-22T21:26:42.021Z,31.10
2023-08-22T21:29:09.244Z,31.08
2023-08-22T21:31:35.982Z,31.08
2023-08-22T21:34:02.709Z,31.06
2023-08-22T21:36:30.724Z,30.92
2023-08-22T21:38:57.511Z,30.89
2023-08-22T21:41:24.314Z,30.91
2023-08-22T21:43:50.999Z,30.94
2023-08-22T21:46:17.742Z,30.89
2023-08-22T21:48:44.528Z,30.83
2023-08-22T21:51:11.268Z,30.88
2023-08-22T21:53:39.300Z,30.82
2023-08-22T21:56:05.962Z,30.78
2023-08-22T21:58:32.644Z,30.74
2023-08-22T22:01:09.232Z,30.67
2023-08-22T22:03:36.465Z,30.67
2023-08-22T22:06:03.352Z,30.64
2023-08-22T22:08:30.096Z,30.61
2023-08-22T22:10:58.934Z,30.50
2023-08-22T22:13:25.672Z,30.43
2023-08-22T22:15:53.412Z,30.42
2023-08-22T22:18:20.140Z,30.33
2023-08-22T22:20:53.864Z,29.99
2023-08-22T22:23:20.566Z,29.92
2023-08-22T22:25:47.219Z,29.93
2023-08-22T22:28:15.242Z,29.84
2023-08-22T22:30:41.978Z,29.71
2023-08-22T22:33:08.720Z,29.59
2023-08-22T22:35:35.434Z,29.64
2023-08-22T22:38:02.090Z,29.80
2023-08-22T22:40:28.817Z,29.89
2023-08-22T22:42:55.626Z,29.86
2023-08-22T22:45:23.730Z,29.93
2023-08-22T22:47:50.411Z,29.97
2023-08-22T22:50:17.351Z,29.94
2023-08-22T22:52:44.062Z,29.72
2023-08-22T22:55:10.766Z,29.62
2023-08-22T22:57:37.561Z,29.53
2023-08-22T23:00:04.828Z,29.31
2023-08-22T23:02:32.897Z,29.37
2023-08-22T23:04:59.795Z,29.30
2023-08-22T23:07:26.549Z,29.29
2023-08-22T23:09:54.132Z,29.35
2023-08-22T23:12:22.876Z,29.33
2023-08-22T23:14:49.614Z,29.44
2023-08-22T23:17:17.470Z,29.44
2023-08-22T23:19:45.489Z,29.48
2023-08-22T23:22:12.222Z,29.48
2023-08-22T23:24:38.900Z,29.46
2023-08-22T23:27:05.600Z,29.48
2023-08-22T23:29:32.274Z,29.55
2023-08-22T23:31:59.027Z,29.56
2023-08-22T23:34:25.659Z,29.45
2023-08-22T23:36:53.701Z,29.46
2023-08-22T23:39:20.468Z,29.37
2023-08-22T23:41:47.172Z,29.37
2023-08-22T23:44:13.866Z,29.26
2023-08-22T23:46:40.664Z,29.18
2023-08-22T23:49:07.459Z,29.18
2023-08-22T23:51:34.121Z,29.10
2023-08-22T23:54:02.115Z,28.94
2023-08-22T23:56:28.757Z,28.78
2023-08-22T23:58:55.425Z,28.73
